Time;durP1;ratioP1;P1;durP2;ratioP2;P2;SDS_P1;SDS_P2;PMS_P1;PMS_P2;Temp;Humidity;BMP_temperature;BMP_pressure;BME280_temperature;BME280_humidity;BME280_pressure;Samples;Min_cycle;Max_cycle;Signal;HPM_P1;HPM_P2
2023/03/06 00:01:29;;;;;;;7.80;2.15;;;;;;;;;;4936208;29;20462;-76
2023/03/06 00:03:55;;;;;;;5.10;2.00;;;;;;;;;;4936348;29;20596;-77
2023/03/06 00:06:21;;;;;;;5.82;2.15;;;;;;;;;;4936310;29;20412;-76
2023/03/06 00:08:47;;;;;;;6.57;2.10;;;;;;;;;;4936357;29;20422;-76
2023/03/06 00:11:14;;;;;;;5.88;1.92;;;;;;;;;;4935934;29;20427;-76
2023/03/06 00:13:40;;;;;;;5.88;2.50;;;;;;;;;;4936266;29;20482;-77
2023/03/06 00:16:06;;;;;;;6.78;2.22;;;;;;;;;;4920508;29;20414;-77
2023/03/06 00:18:33;;;;;;;8.82;2.40;;;;;;;;;;4936035;29;20417;-76
2023/03/06 00:20:59;;;;;;;6.85;2.13;;;;;;;;;;4920244;29;20423;-76
2023/03/06 00:23:26;;;;;;;9.03;2.20;;;;;;;;;;4935465;29;20431;-76
2023/03/06 00:25:52;;;;;;;6.72;1.92;;;;;;;;;;4935823;29;20412;-76
2023/03/06 00:28:18;;;;;;;6.18;2.20;;;;;;;;;;4936065;29;20411;-77
2023/03/06 00:30:47;;;;;;;7.47;2.50;;;;;;;;;;4920186;29;20423;-76
2023/03/06 00:33:13;;;;;;;7.97;2.50;;;;;;;;;;4919925;29;20419;-76
2023/03/06 00:35:40;;;;;;;5.93;2.30;;;;;;;;;;4920252;29;20510;-77
2023/03/06 00:38:06;;;;;;;6.13;2.40;;;;;;;;;;4935674;29;20415;-77
2023/03/06 00:40:32;;;;;;;6.90;2.40;;;;;;;;;;4919873;29;20471;-77
2023/03/06 00:42:58;;;;;;;6.68;2.40;;;;;;;;;;4935462;29;20419;-77
2023/03/06 00:45:24;;;;;;;9.43;2.30;;;;;;;;;;4935716;29;20415;-77
2023/03/06 00:47:50;;;;;;;7.23;2.63;;;;;;;;;;4919746;29;20415;-77
2023/03/06 00:50:16;;;;;;;7.88;2.40;;;;;;;;;;4935747;29;20771;-77
2023/03/06 00:52:42;;;;;;;6.57;2.40;;;;;;;;;;4935420;29;20412;-77
2023/03/06 00:55:09;;;;;;;6.95;2.28;;;;;;;;;;4919362;29;20942;-77
2023/03/06 00:57:35;;;;;;;9.13;2.83;;;;;;;;;;4919683;29;20417;-77
2023/03/06 01:00:02;;;;;;;7.22;2.60;;;;;;;;;;4935156;29;20923;-77
2023/03/06 01:02:28;;;;;;;7.10;2.20;;;;;;;;;;4919305;29;20565;-77
2023/03/06 01:04:54;;;;;;;5.90;2.38;;;;;;;;;;4935095;29;20436;-77
2023/03/06 01:07:20;;;;;;;6.57;2.20;;;;;;;;;;4935155;29;20411;-77
2023/03/06 01:09:46;;;;;;;6.78;2.22;;;;;;;;;;4919244;29;20415;-77
2023/03/06 01:12:12;;;;;;;5.78;2.28;;;;;;;;;;4919366;29;20411;-77
2023/03/06 01:14:38;;;;;;;6.60;2.38;;;;;;;;;;4935347;29;20768;-77
2023/03/06 01:17:04;;;;;;;7.32;2.20;;;;;;;;;;4935267;29;20414;-77
2023/03/06 01:19:30;;;;;;;5.95;2.65;;;;;;;;;;4919409;29;20415;-77
2023/03/06 01:21:56;;;;;;;8.52;2.33;;;;;;;;;;4919173;29;20416;-77
2023/03/06 01:24:24;;;;;;;10.30;2.65;;;;;;;;;;4918915;29;20445;-77
2023/03/06 01:26:50;;;;;;;6.93;2.40;;;;;;;;;;4934708;29;20422;-77
2023/03/06 01:29:16;;;;;;;7.38;2.85;;;;;;;;;;4935063;29;20412;-77
2023/03/06 01:31:42;;;;;;;9.93;2.85;;;;;;;;;;4935007;29;20412;-77
2023/03/06 01:34:08;;;;;;;6.78;2.35;;;;;;;;;;4934929;29;20407;-77
2023/03/06 01:36:34;;;;;;;5.90;2.60;;;;;;;;;;4917802;29;20416;-77
2023/03/06 01:39:02;;;;;;;6.53;2.58;;;;;;;;;;4934872;29;20412;-77
2023/03/06 01:41:29;;;;;;;6.47;2.60;;;;;;;;;;4934591;29;20420;-77
2023/03/06 01:43:55;;;;;;;6.07;2.50;;;;;;;;;;4918780;29;20463;-77
2023/03/06 01:46:40;;;;;;;6.85;2.53;;;;;;;;;;4934426;29;20460;-77
2023/03/06 01:49:24;;;;;;;4.88;1.98;;;;;;;;;;4918787;29;20420;-77
2023/03/06 01:51:53;;;;;;;4.57;2.15;;;;;;;;;;4934415;29;20473;-77
2023/03/06 01:54:39;;;;;;;6.40;2.38;;;;;;;;;;4934291;29;20423;-77
2023/03/06 01:57:11;;;;;;;6.05;2.20;;;;;;;;;;4934015;29;20423;-77
2023/03/06 01:59:38;;;;;;;4.82;2.40;;;;;;;;;;4934251;29;20926;-77
2023/03/06 02:02:06;;;;;;;5.55;2.33;;;;;;;;;;4934108;29;20419;-77
2023/03/06 02:04:32;;;;;;;5.25;2.60;;;;;;;;;;4934046;29;20431;-77
2023/03/06 02:07:00;;;;;;;6.47;2.80;;;;;;;;;;4934389;29;20756;-77
2023/03/06 02:09:29;;;;;;;5.80;2.75;;;;;;;;;;4934426;29;20991;-77
2023/03/06 02:11:55;;;;;;;5.40;2.83;;;;;;;;;;4934273;29;20434;-78
2023/03/06 02:14:21;;;;;;;6.00;2.80;;;;;;;;;;4934309;29;20434;-78
2023/03/06 02:16:47;;;;;;;6.78;2.85;;;;;;;;;;4918103;29;20422;-78
2023/03/06 02:19:37;;;;;;;6.85;2.97;;;;;;;;;;4933785;29;20411;-78
2023/03/06 02:22:03;;;;;;;8.15;3.03;;;;;;;;;;4916229;29;20734;-78
2023/03/06 02:24:50;;;;;;;6.73;3.10;;;;;;;;;;4933599;29;20439;-78
2023/03/06 02:27:17;;;;;;;6.47;3.10;;;;;;;;;;4933653;29;20439;-77
2023/03/06 02:29:43;;;;;;;6.22;3.10;;;;;;;;;;4917840;29;20416;-78
2023/03/06 02:32:09;;;;;;;6.90;3.28;;;;;;;;;;4933603;29;20416;-78
2023/03/06 02:34:35;;;;;;;6.43;3.30;;;;;;;;;;4933791;29;20430;-78
2023/03/06 02:37:03;;;;;;;7.30;2.90;;;;;;;;;;4917647;29;20412;-78
2023/03/06 02:39:31;;;;;;;5.70;2.92;;;;;;;;;;4933860;29;20430;-78
2023/03/06 02:41:57;;;;;;;7.37;2.90;;;;;;;;;;4933815;29;20467;-78
2023/03/06 02:44:25;;;;;;;5.00;2.70;;;;;;;;;;4933451;29;20494;-78
2023/03/06 02:46:51;;;;;;;6.18;2.70;;;;;;;;;;4917270;29;20404;-78
2023/03/06 02:49:17;;;;;;;4.28;2.50;;;;;;;;;;4917651;29;20412;-78
2023/03/06 02:51:43;;;;;;;6.22;2.53;;;;;;;;;;4917679;29;20411;-78
2023/03/06 02:54:10;;;;;;;5.40;2.42;;;;;;;;;;4917526;29;20423;-78
2023/03/06 02:56:36;;;;;;;6.95;2.65;;;;;;;;;;4917811;29;20411;-78
2023/03/06 02:59:02;;;;;;;5.07;2.50;;;;;;;;;;4917663;29;20422;-78
2023/03/06 03:01:28;;;;;;;5.13;2.45;;;;;;;;;;4917674;29;20426;-78
2023/03/06 03:03:55;;;;;;;3.95;2.25;;;;;;;;;;4917559;29;20994;-78
2023/03/06 03:06:21;;;;;;;3.85;1.58;;;;;;;;;;4933430;29;20861;-78
2023/03/06 03:08:47;;;;;;;3.20;1.50;;;;;;;;;;4917692;29;20935;-78
2023/03/06 03:11:13;;;;;;;3.15;1.40;;;;;;;;;;4917245;29;20495;-78
2023/03/06 03:13:39;;;;;;;2.42;1.30;;;;;;;;;;4933576;29;20451;-78
2023/03/06 03:16:07;;;;;;;2.15;1.27;;;;;;;;;;4933513;29;20412;-77
2023/03/06 03:18:34;;;;;;;3.10;1.20;;;;;;;;;;4917338;29;20422;-78
2023/03/06 03:21:00;;;;;;;4.25;1.50;;;;;;;;;;4917387;29;20926;-78
2023/03/06 03:23:27;;;;;;;3.20;1.45;;;;;;;;;;4917349;29;20514;-78
2023/03/06 03:25:53;;;;;;;2.35;1.48;;;;;;;;;;4917301;29;20408;-78
2023/03/06 03:28:19;;;;;;;2.67;1.60;;;;;;;;;;4917254;29;20440;-78
2023/03/06 03:30:45;;;;;;;2.55;1.38;;;;;;;;;;4917424;29;20417;-78
2023/03/06 03:33:12;;;;;;;2.78;1.50;;;;;;;;;;4933353;29;20415;-78
2023/03/06 03:35:38;;;;;;;3.15;1.70;;;;;;;;;;4932999;29;20408;-78
2023/03/06 03:38:04;;;;;;;3.42;1.35;;;;;;;;;;4932947;29;20403;-78
2023/03/06 03:40:30;;;;;;;3.60;1.60;;;;;;;;;;4917280;29;20415;-77
2023/03/06 03:42:56;;;;;;;3.55;1.50;;;;;;;;;;4917205;29;20422;-78
2023/03/06 03:45:22;;;;;;;3.00;1.50;;;;;;;;;;4917051;29;20446;-78
2023/03/06 03:47:48;;;;;;;3.73;1.60;;;;;;;;;;4917481;29;20407;-78
2023/03/06 03:50:14;;;;;;;4.43;1.73;;;;;;;;;;4932887;29;20443;-78
2023/03/06 03:52:40;;;;;;;3.22;1.60;;;;;;;;;;4932846;29;20411;-78
2023/03/06 03:55:07;;;;;;;3.80;1.85;;;;;;;;;;4917012;29;20502;-78
2023/03/06 03:57:33;;;;;;;3.15;1.80;;;;;;;;;;4933053;29;20419;-78
2023/03/06 03:59:59;;;;;;;2.78;1.52;;;;;;;;;;4935366;29;20416;-78
2023/03/06 04:02:25;;;;;;;3.50;1.85;;;;;;;;;;4936285;29;20469;-78
2023/03/06 04:04:51;;;;;;;3.15;1.70;;;;;;;;;;4920346;29;20431;-78
2023/03/06 04:07:17;;;;;;;3.08;1.60;;;;;;;;;;4920660;29;20417;-78
2023/03/06 04:09:43;;;;;;;3.17;1.70;;;;;;;;;;4920788;29;20797;-77
2023/03/06 04:12:09;;;;;;;4.13;2.05;;;;;;;;;;4933934;29;20780;-78
2023/03/06 04:14:35;;;;;;;3.78;2.05;;;;;;;;;;4920263;29;20470;-78
2023/03/06 04:17:01;;;;;;;4.32;2.00;;;;;;;;;;4935976;29;20422;-78
2023/03/06 04:19:27;;;;;;;4.40;1.90;;;;;;;;;;4920184;29;20412;-78
2023/03/06 04:21:53;;;;;;;3.92;2.00;;;;;;;;;;4920089;29;20415;-78
2023/03/06 04:24:19;;;;;;;3.33;1.80;;;;;;;;;;4920362;29;20454;-78
2023/03/06 04:26:45;;;;;;;3.58;2.00;;;;;;;;;;4935890;29;20412;-78
2023/03/06 04:29:12;;;;;;;3.42;2.10;;;;;;;;;;4920113;29;20414;-77
2023/03/06 04:31:38;;;;;;;3.30;1.80;;;;;;;;;;4935778;29;20911;-78
2023/03/06 04:34:04;;;;;;;4.75;2.03;;;;;;;;;;4920274;29;20420;-78
2023/03/06 04:36:31;;;;;;;2.85;1.70;;;;;;;;;;4935481;29;20499;-78
2023/03/06 04:38:57;;;;;;;3.40;1.90;;;;;;;;;;4935664;29;20478;-78
2023/03/06 04:41:23;;;;;;;4.53;1.88;;;;;;;;;;4935680;29;20544;-78
2023/03/06 04:43:50;;;;;;;4.38;1.95;;;;;;;;;;4919582;29;20435;-78
2023/03/06 04:46:16;;;;;;;3.42;1.80;;;;;;;;;;4935364;29;20905;-78
2023/03/06 04:48:42;;;;;;;3.50;1.80;;;;;;;;;;4919563;29;20408;-78
2023/03/06 04:51:11;;;;;;;4.22;1.98;;;;;;;;;;4935486;29;20486;-78
2023/03/06 04:53:37;;;;;;;4.30;2.10;;;;;;;;;;4919553;29;20919;-78
2023/03/06 04:56:03;;;;;;;4.45;1.90;;;;;;;;;;4935517;29;20852;-78
2023/03/06 04:58:29;;;;;;;3.35;1.90;;;;;;;;;;4935576;29;20411;-78
2023/03/06 05:00:55;;;;;;;4.20;1.80;;;;;;;;;;4919330;29;20537;-78
2023/03/06 05:03:21;;;;;;;4.10;2.27;;;;;;;;;;4935055;29;20427;-78
2023/03/06 05:05:47;;;;;;;4.10;2.00;;;;;;;;;;4919639;29;20761;-78
2023/03/06 05:08:14;;;;;;;3.83;2.00;;;;;;;;;;4919392;29;20443;-78
2023/03/06 05:10:41;;;;;;;3.55;1.90;;;;;;;;;;4935056;29;20828;-78
2023/03/06 05:13:07;;;;;;;4.90;1.90;;;;;;;;;;4934912;29;20435;-78
2023/03/06 05:15:33;;;;;;;3.55;1.85;;;;;;;;;;4934802;29;20494;-77
2023/03/06 05:17:59;;;;;;;5.25;2.00;;;;;;;;;;4934995;29;20418;-77
2023/03/06 05:20:27;;;;;;;4.85;2.15;;;;;;;;;;4934902;29;20903;-78
2023/03/06 05:22:53;;;;;;;5.22;2.15;;;;;;;;;;4935164;29;20767;-77
2023/03/06 05:25:19;;;;;;;4.40;2.00;;;;;;;;;;4934510;29;20439;-77
2023/03/06 05:27:45;;;;;;;4.40;2.22;;;;;;;;;;4934601;29;20475;-78
2023/03/06 05:30:13;;;;;;;4.00;2.00;;;;;;;;;;4934599;29;20412;-77
2023/03/06 05:32:39;;;;;;;4.03;2.30;;;;;;;;;;4934606;29;20416;-78
2023/03/06 05:35:05;;;;;;;3.70;1.80;;;;;;;;;;4934817;29;20418;-77
2023/03/06 05:37:32;;;;;;;4.45;2.25;;;;;;;;;;4934634;29;20419;-77
2023/03/06 05:39:58;;;;;;;4.60;2.60;;;;;;;;;;4934406;29;20535;-77
2023/03/06 05:42:24;;;;;;;4.75;2.60;;;;;;;;;;4934791;29;20426;-78
2023/03/06 05:44:50;;;;;;;5.15;2.42;;;;;;;;;;4934538;29;20518;-77
2023/03/06 05:47:16;;;;;;;5.95;2.42;;;;;;;;;;4934922;29;20760;-77
2023/03/06 05:49:42;;;;;;;3.87;2.50;;;;;;;;;;4918852;29;20767;-77
2023/03/06 05:52:08;;;;;;;5.85;2.80;;;;;;;;;;4918708;29;20407;-77
2023/03/06 05:54:36;;;;;;;5.40;3.40;;;;;;;;;;4918945;29;20430;-77
2023/03/06 05:57:03;;;;;;;7.05;2.92;;;;;;;;;;4934832;29;20416;-77
2023/03/06 05:59:31;;;;;;;6.03;3.05;;;;;;;;;;4934665;29;20426;-77
2023/03/06 06:01:57;;;;;;;5.40;2.90;;;;;;;;;;4935242;29;20420;-77
2023/03/06 06:04:25;;;;;;;5.65;3.20;;;;;;;;;;4919755;29;20445;-77
2023/03/06 06:06:58;;;;;;;7.20;3.78;;;;;;;;;;4920291;29;20483;-77
2023/03/06 06:09:24;;;;;;;7.03;3.70;;;;;;;;;;4920197;29;20424;-77
2023/03/06 06:11:51;;;;;;;7.03;4.20;;;;;;;;;;4934938;29;20424;-77
2023/03/06 06:14:17;;;;;;;7.72;4.50;;;;;;;;;;4934518;29;20415;-77
2023/03/06 06:16:43;;;;;;;6.72;4.28;;;;;;;;;;4919398;29;20766;-76
2023/03/06 06:19:14;;;;;;;8.02;4.10;;;;;;;;;;4934531;29;20415;-77
2023/03/06 06:21:40;;;;;;;7.25;4.20;;;;;;;;;;4934274;29;20876;-77
2023/03/06 06:24:06;;;;;;;6.85;4.40;;;;;;;;;;4918841;29;20432;-77
2023/03/06 06:26:32;;;;;;;5.40;3.83;;;;;;;;;;4919340;29;20466;-77
2023/03/06 06:28:58;;;;;;;6.20;3.97;;;;;;;;;;4934342;29;20422;-78
2023/03/06 06:31:24;;;;;;;6.57;4.20;;;;;;;;;;4933883;29;20415;-77
2023/03/06 06:33:50;;;;;;;7.18;4.82;;;;;;;;;;4933579;29;20498;-78
2023/03/06 06:36:18;;;;;;;8.20;4.93;;;;;;;;;;4933501;29;20415;-78
2023/03/06 06:38:44;;;;;;;6.53;4.30;;;;;;;;;;4933234;29;20415;-78
2023/03/06 06:41:10;;;;;;;7.97;4.50;;;;;;;;;;4917669;29;20415;-77
2023/03/06 06:43:36;;;;;;;6.93;4.73;;;;;;;;;;4917765;29;20868;-77
2023/03/06 06:46:02;;;;;;;10.02;6.22;;;;;;;;;;4933642;29;20756;-78
2023/03/06 06:48:28;;;;;;;8.05;5.15;;;;;;;;;;4933425;29;20446;-78
2023/03/06 06:50:55;;;;;;;7.80;5.00;;;;;;;;;;4933420;29;20466;-78
2023/03/06 06:53:21;;;;;;;6.60;4.40;;;;;;;;;;4933415;29;20403;-78
2023/03/06 06:55:47;;;;;;;5.78;4.30;;;;;;;;;;4933534;29;20419;-78
2023/03/06 06:58:14;;;;;;;7.22;4.30;;;;;;;;;;4917625;29;20407;-78
2023/03/06 07:00:40;;;;;;;7.63;4.50;;;;;;;;;;4917596;29;20497;-78
2023/03/06 07:03:07;;;;;;;7.55;4.95;;;;;;;;;;4933247;29;20422;-78
2023/03/06 07:05:33;;;;;;;10.77;7.30;;;;;;;;;;4917688;29;20412;-78
2023/03/06 07:07:59;;;;;;;12.98;7.93;;;;;;;;;;4933317;29;20761;-78
2023/03/06 07:10:25;;;;;;;8.43;6.15;;;;;;;;;;4917226;29;20427;-78
2023/03/06 07:12:52;;;;;;;11.23;6.10;;;;;;;;;;4917586;29;20404;-78
2023/03/06 07:15:18;;;;;;;15.88;7.70;;;;;;;;;;4917543;29;20415;-78
2023/03/06 07:17:44;;;;;;;15.68;7.20;;;;;;;;;;4917422;29;20425;-78
2023/03/06 07:20:11;;;;;;;10.50;5.75;;;;;;;;;;4917379;29;20551;-78
2023/03/06 07:22:38;;;;;;;10.38;5.80;;;;;;;;;;4933316;29;20426;-78
2023/03/06 07:25:04;;;;;;;10.32;5.60;;;;;;;;;;4932957;29;20526;-78
2023/03/06 07:27:30;;;;;;;8.18;4.70;;;;;;;;;;4933116;29;20407;-77
2023/03/06 07:29:57;;;;;;;7.47;4.80;;;;;;;;;;4917499;29;20490;-78
2023/03/06 07:32:23;;;;;;;7.03;4.60;;;;;;;;;;4932978;29;20411;-78
2023/03/06 07:34:49;;;;;;;6.15;4.00;;;;;;;;;;4921205;29;20543;-78
2023/03/06 07:37:15;;;;;;;7.25;3.90;;;;;;;;;;4921099;29;20427;-78
2023/03/06 07:39:41;;;;;;;5.10;3.57;;;;;;;;;;4936847;29;20514;-78
2023/03/06 07:42:08;;;;;;;7.45;3.78;;;;;;;;;;4937081;29;20416;-79
2023/03/06 07:44:38;;;;;;;6.57;4.07;;;;;;;;;;4936531;29;20459;-78
2023/03/06 07:47:04;;;;;;;6.82;4.25;;;;;;;;;;4936853;29;20467;-78
2023/03/06 07:49:31;;;;;;;7.55;4.45;;;;;;;;;;4936634;29;20499;-78
2023/03/06 07:51:57;;;;;;;6.25;4.10;;;;;;;;;;4920627;29;20412;-78
2023/03/06 07:54:24;;;;;;;6.35;3.33;;;;;;;;;;4920685;29;20419;-79
2023/03/06 07:56:51;;;;;;;5.50;3.13;;;;;;;;;;4936410;29;20494;-79
2023/03/06 07:59:17;;;;;;;5.93;3.40;;;;;;;;;;4936416;29;20491;-78
2023/03/06 08:01:43;;;;;;;5.47;3.10;;;;;;;;;;4920615;29;21009;-79
2023/03/06 08:04:09;;;;;;;4.55;3.10;;;;;;;;;;4936355;29;20518;-79
2023/03/06 08:06:35;;;;;;;5.23;3.10;;;;;;;;;;4936638;29;20404;-79
2023/03/06 08:09:02;;;;;;;5.68;3.20;;;;;;;;;;4936176;29;20412;-79
2023/03/06 08:11:29;;;;;;;4.10;2.70;;;;;;;;;;4932173;29;20916;-79
2023/03/06 08:13:55;;;;;;;4.80;2.75;;;;;;;;;;4920441;29;20419;-79
2023/03/06 08:16:23;;;;;;;5.32;3.05;;;;;;;;;;4920382;29;20420;-79
2023/03/06 08:18:49;;;;;;;4.00;2.40;;;;;;;;;;4920409;29;20420;-79
2023/03/06 08:21:20;;;;;;;5.07;2.45;;;;;;;;;;4936326;29;20508;-79
2023/03/06 08:23:46;;;;;;;4.30;2.50;;;;;;;;;;4935778;29;20446;-79
2023/03/06 08:26:14;;;;;;;4.50;2.20;;;;;;;;;;4920337;29;20418;-79
2023/03/06 08:28:40;;;;;;;4.00;2.30;;;;;;;;;;4935977;29;20496;-79
2023/03/06 08:31:09;;;;;;;3.70;2.20;;;;;;;;;;4920059;29;20418;-79
2023/03/06 08:33:36;;;;;;;3.83;2.40;;;;;;;;;;4920035;29;20541;-79
2023/03/06 08:36:02;;;;;;;4.70;2.40;;;;;;;;;;4919920;29;20419;-79
2023/03/06 08:38:28;;;;;;;3.70;2.13;;;;;;;;;;4920119;29;20959;-79
2023/03/06 08:40:54;;;;;;;4.88;2.28;;;;;;;;;;4920129;29;20741;-78
2023/03/06 08:43:20;;;;;;;4.40;2.20;;;;;;;;;;4935787;29;20452;-79
2023/03/06 08:45:51;;;;;;;5.33;2.13;;;;;;;;;;4919173;29;20419;-79
2023/03/06 08:48:17;;;;;;;3.70;2.00;;;;;;;;;;4919682;29;20412;-79
2023/03/06 08:50:43;;;;;;;6.40;2.35;;;;;;;;;;4935468;29;21016;-79
2023/03/06 08:53:09;;;;;;;5.70;1.90;;;;;;;;;;4920021;29;20784;-79
2023/03/06 08:55:36;;;;;;;5.28;1.50;;;;;;;;;;4935202;29;20451;-79
2023/03/06 08:58:03;;;;;;;3.63;1.60;;;;;;;;;;4919623;29;20421;-79
2023/03/06 09:00:29;;;;;;;4.32;1.70;;;;;;;;;;4919852;29;20844;-79
2023/03/06 09:02:55;;;;;;;4.60;1.55;;;;;;;;;;4935312;29;20415;-79
2023/03/06 09:05:21;;;;;;;5.80;1.70;;;;;;;;;;4935085;29;20439;-79
2023/03/06 09:07:47;;;;;;;3.88;1.60;;;;;;;;;;4935114;29;20499;-79
2023/03/06 09:10:18;;;;;;;5.63;1.65;;;;;;;;;;4919379;29;20451;-79
2023/03/06 09:12:44;;;;;;;6.20;1.40;;;;;;;;;;4934971;29;20447;-79
2023/03/06 09:15:11;;;;;;;5.17;1.80;;;;;;;;;;4934894;29;20424;-78
2023/03/06 09:17:37;;;;;;;6.00;1.30;;;;;;;;;;4935039;29;20479;-77
2023/03/06 09:20:04;;;;;;;4.75;1.50;;;;;;;;;;4925387;29;20506;-78
2023/03/06 09:22:30;;;;;;;4.00;1.90;;;;;;;;;;4927728;29;20795;-79
2023/03/06 09:24:56;;;;;;;3.53;1.40;;;;;;;;;;4912375;29;20905;-79
2023/03/06 09:27:22;;;;;;;3.75;1.27;;;;;;;;;;4914685;29;20547;-79
2023/03/06 09:29:48;;;;;;;5.53;1.50;;;;;;;;;;4929702;29;20431;-81
2023/03/06 09:32:15;;;;;;;4.07;1.48;;;;;;;;;;4930916;29;20473;-80
2023/03/06 09:34:41;;;;;;;4.28;1.35;;;;;;;;;;4929498;29;20438;-79
2023/03/06 09:37:07;;;;;;;5.57;1.47;;;;;;;;;;4930634;29;20432;-78
2023/03/06 09:39:33;;;;;;;4.90;1.20;;;;;;;;;;4897741;29;20439;-78
2023/03/06 09:41:59;;;;;;;6.18;1.30;;;;;;;;;;4931167;29;21213;-79
2023/03/06 09:44:29;;;;;;;5.07;1.40;;;;;;;;;;4914715;29;21006;-78
2023/03/06 09:46:56;;;;;;;3.70;0.90;;;;;;;;;;4930722;29;20429;-77
2023/03/06 09:49:22;;;;;;;3.72;0.63;;;;;;;;;;4922350;29;20490;-78
2023/03/06 09:51:57;;;;;;;3.25;0.90;;;;;;;;;;4930063;29;21044;-78
2023/03/06 09:54:32;;;;;;;5.10;1.10;;;;;;;;;;4930320;29;20935;-79
2023/03/06 09:56:58;;;;;;;3.25;0.90;;;;;;;;;;4931272;29;20442;-79
2023/03/06 09:59:26;;;;;;;4.25;1.10;;;7.30;99.90;;;;;;4932102;29;20510;-78
2023/03/06 10:01:58;;;;;;;4.00;1.20;;;;;;;;;;4926412;29;20522;-78
2023/03/06 10:04:50;;;;;;;3.80;1.00;;;;;;;;;;4931026;29;20442;-78
2023/03/06 10:07:34;;;;;;;3.17;1.08;;;7.10;99.90;;;;;;4930052;29;20460;-79
2023/03/06 10:10:02;;;;;;;2.60;1.00;;;;;;;;;;4904929;29;20427;-77
2023/03/06 10:12:33;;;;;;;4.82;1.00;;;;;;;;;;4927748;29;20514;-79
2023/03/06 10:15:20;;;;;;;4.57;1.40;;;;;;;;;;4911689;29;20433;-80
2023/03/06 10:17:47;;;;;;;3.97;1.00;;;;;;;;;;4926777;29;20439;-79
2023/03/06 10:20:17;;;;;;;5.63;1.10;;;;;;;;;;4917591;29;20526;-79
2023/03/06 10:23:03;;;;;;;4.00;1.00;;;;;;;;;;4928480;29;20991;-80
2023/03/06 10:25:37;;;;;;;3.55;0.90;;;;;;;;;;4912432;29;20443;-79
2023/03/06 10:28:11;;;;;;;3.50;0.90;;;;;;;;;;4911430;29;20439;-79
2023/03/06 10:30:49;;;;;;;3.07;0.90;;;;;;;;;;4915446;29;20423;-78
2023/03/06 10:33:36;;;;;;;4.03;0.85;;;7.00;99.90;;;;;;4926954;29;20439;-79
2023/03/06 10:36:03;;;;;;;3.25;1.10;;;;;;;;;;4932312;29;20454;-80
2023/03/06 10:38:37;;;;;;;5.35;1.02;;;7.10;99.90;;;;;;4914075;29;20429;-80
2023/03/06 10:41:06;;;;;;;4.35;1.60;;;;;;;;;;4916411;29;20935;-79
2023/03/06 10:43:33;;;;;;;4.28;1.60;;;;;;;;;;4928056;29;20472;-78
2023/03/06 10:45:59;;;;;;;4.97;1.38;;;;;;;;;;4916172;29;21005;-79
2023/03/06 10:48:27;;;;;;;4.15;1.40;;;;;;;;;;4924439;29;20443;-78
2023/03/06 10:51:08;;;;;;;4.68;1.20;;;;;;;;;;4931935;29;20458;-81
2023/03/06 10:53:34;;;;;;;3.70;1.20;;;;;;;;;;4929208;29;20853;-84
2023/03/06 10:56:01;;;;;;;4.40;1.40;;;;;;;;;;4933847;29;20503;-85
2023/03/06 10:58:28;;;;;;;6.13;1.38;;;;;;;;;;4927913;29;20519;-85
2023/03/06 11:01:22;;;;;;;5.97;1.50;;;7.50;99.90;;;;;;4931508;29;20423;-80
2023/03/06 11:03:48;;;;;;;4.90;1.45;;;;;;;;;;4931575;29;20478;-81
2023/03/06 11:06:15;;;;;;;3.08;1.15;;;;;;;;;;4929896;29;20444;-80
2023/03/06 11:08:42;;;;;;;3.20;1.10;;;;;;;;;;4927420;29;20423;-79
2023/03/06 11:11:13;;;;;;;3.72;1.17;;;;;;;;;;4939519;29;20486;-79
2023/03/06 11:13:41;;;;;;;3.67;1.00;;;;;;;;;;4935289;29;20437;-79
2023/03/06 11:16:22;;;;;;;2.65;1.00;;;6.50;99.90;;;;;;4933707;29;20485;-79
2023/03/06 11:18:56;;;;;;;4.97;1.27;;;;;;;;;;4921114;29;20431;-80
2023/03/06 11:21:27;;;;;;;4.03;1.20;;;;;;;;;;4922827;29;20427;-80
2023/03/06 11:23:54;;;;;;;3.25;1.25;;;;;;;;;;4936001;29;20431;-81
2023/03/06 11:26:25;;;;;;;3.20;1.25;;;;;;;;;;4935441;29;20951;-81
2023/03/06 11:29:09;;;;;;;3.22;1.05;;;;;;;;;;4924686;29;20510;-80
2023/03/06 11:31:47;;;;;;;4.10;1.15;;;;;;;;;;4932620;29;20438;-80
2023/03/06 11:34:18;;;;;;;3.42;1.20;;;;;;;;;;4929250;29;20431;-80
2023/03/06 11:36:51;;;;;;;3.83;1.10;;;;;;;;;;4934540;29;20431;-80
2023/03/06 11:39:17;;;;;;;2.17;0.90;;;;;;;;;;4928690;29;20515;-80
2023/03/06 11:41:49;;;;;;;3.55;0.95;;;;;;;;;;4931768;29;20509;-80
2023/03/06 11:44:28;;;;;;;3.28;0.70;;;8.60;99.90;;;;;;4921305;29;20443;-80
2023/03/06 11:47:16;;;;;;;2.90;0.75;;;8.20;99.90;;;;;;4933273;29;20438;-80
2023/03/06 11:49:51;;;;;;;2.05;0.80;;;7.90;99.90;;;;;;4910214;29;20432;-80
2023/03/06 11:52:40;;;;;;;3.38;0.80;;;8.30;99.90;;;;;;4951237;28;20426;-81
2023/03/06 11:55:11;;;;;;;2.10;0.65;;;;;;;;;;4924011;28;20435;-81
2023/03/06 11:57:44;;;;;;;3.33;0.90;;;;;;;;;;4930601;29;20556;-81
2023/03/06 12:00:10;;;;;;;4.53;0.93;;;;;;;;;;4916600;29;20529;-81
2023/03/06 12:02:59;;;;;;;2.63;0.80;;;;;;;;;;4933972;29;21444;-80
2023/03/06 12:05:34;;;;;;;2.95;0.90;;;;;;;;;;4936203;29;20435;-80
2023/03/06 12:08:06;;;;;;;2.55;0.80;;;;;;;;;;4919867;29;20478;-79
2023/03/06 12:10:40;;;;;;;3.20;0.70;;;;;;;;;;4933686;29;20430;-79
2023/03/06 12:13:23;;;;;;;1.58;0.70;;;;;;;;;;4917166;29;20442;-80
2023/03/06 12:16:08;;;;;;;3.25;1.00;;;;;;;;;;4935557;29;20797;-80
2023/03/06 12:18:42;;;;;;;2.13;1.00;;;;;;;;;;4933702;29;20952;-79
2023/03/06 12:21:34;;;;;;;4.07;1.10;;;8.80;99.90;;;;;;4932517;29;20510;-79
2023/03/06 12:24:07;;;;;;;2.53;0.88;;;;;;;;;;4910040;29;20563;-80
2023/03/06 12:26:56;;;;;;;3.67;0.80;;;;;;;;;;4930104;29;21033;-79
2023/03/06 12:29:27;;;;;;;3.75;1.10;;;;;;;;;;4900825;29;20427;-79
2023/03/06 12:32:02;;;;;;;3.95;1.10;;;;;;;;;;4929305;29;20494;-80
2023/03/06 12:34:31;;;;;;;8.48;1.30;;;;;;;;;;4929109;29;20428;-80
2023/03/06 12:37:16;;;;;;;3.30;1.00;;;8.70;99.90;;;;;;4909152;29;20763;-79
2023/03/06 12:39:42;;;;;;;4.03;0.80;;;;;;;;;;4930877;29;20423;-80
2023/03/06 12:42:28;;;;;;;4.78;1.10;;;;;;;;;;4929976;29;20461;-81
2023/03/06 12:45:00;;;;;;;3.58;0.80;;;;;;;;;;4921944;29;20470;-79
2023/03/06 12:47:27;;;;;;;5.10;0.90;;;;;;;;;;4919812;29;20438;-80
2023/03/06 12:50:03;;;;;;;2.67;0.70;;;8.50;99.90;;;;;;4914168;29;20431;-80
2023/03/06 12:52:31;;;;;;;3.85;0.82;;;;;;;;;;4919497;29;20515;-80
2023/03/06 12:55:04;;;;;;;1.95;0.70;;;8.60;99.90;;;;;;4918192;29;20439;-80
2023/03/06 12:57:30;;;;;;;1.60;0.75;;;;;;;;;;4926138;29;20423;-80
2023/03/06 12:59:56;;;;;;;3.55;0.80;;;;;;;;;;4934395;29;20427;-80
2023/03/06 13:02:31;;;;;;;2.20;0.80;;;;;;;;;;4917658;29;20473;-80
2023/03/06 13:05:07;;;;;;;3.47;0.90;;;;;;;;;;4928597;29;20432;-80
2023/03/06 13:07:56;;;;;;;4.15;0.85;;;8.80;99.90;;;;;;4924475;29;20754;-81
2023/03/06 13:10:22;;;;;;;2.63;0.80;;;;;;;;;;4916900;29;20419;-80
2023/03/06 13:12:54;;;;;;;3.63;0.98;;;;;;;;;;4931500;29;20788;-81
2023/03/06 13:15:39;;;;;;;4.53;0.90;;;;;;;;;;4908886;29;20512;-82
2023/03/06 13:18:23;;;;;;;2.25;0.70;;;;;;;;;;4933018;29;20420;-81
2023/03/06 13:20:53;;;;;;;2.20;0.70;;;;;;;;;;4926039;29;20458;-81
2023/03/06 13:23:31;;;;;;;2.50;0.60;;;;;;;;;;4941349;29;20412;-81
2023/03/06 13:26:03;;;;;;;3.20;1.10;;;8.60;99.90;;;;;;4918477;29;20484;-81
2023/03/06 13:28:43;;;;;;;2.88;0.80;;;;;;;;;;4920201;29;20497;-81
2023/03/06 13:31:10;;;;;;;2.97;0.73;;;;;;;;;;4928961;29;20963;-80
2023/03/06 13:33:36;;;;;;;2.63;0.70;;;;;;;;;;4924074;29;20432;-81
2023/03/06 13:36:36;;;;;;;2.15;0.60;;;8.40;99.90;;;;;;4928563;29;20507;-82
2023/03/06 13:39:06;;;;;;;2.10;0.80;;;;;;;;;;4935381;29;20407;-81
2023/03/06 13:41:32;;;;;;;1.75;0.60;;;;;;;;;;4932841;29;20431;-81
2023/03/06 13:43:59;;;;;;;3.88;0.80;;;;;;;;;;4922692;29;20473;-81
2023/03/06 13:46:25;;;;;;;2.90;0.80;;;;;;;;;;4916321;29;20516;-81
2023/03/06 13:49:03;;;;;;;1.73;0.88;;;;;;;;;;4928204;29;20415;-81
2023/03/06 13:51:33;;;;;;;2.87;1.00;;;;;;;;;;4902227;29;20499;-81
2023/03/06 13:54:02;;;;;;;2.70;1.00;;;;;;;;;;4930467;29;20423;-81
2023/03/06 13:57:09;;;;;;;4.13;1.00;;;8.50;99.90;;;;;;4918003;29;20519;-80
2023/03/06 14:00:01;;;;;;;2.58;1.00;;;;;;;;;;4879813;29;20510;-80
2023/03/06 14:02:48;;;;;;;3.78;1.00;;;7.70;99.90;;;;;;4876265;29;20443;-80
2023/03/06 14:05:16;;;;;;;2.65;0.80;;;7.70;99.90;;;;;;4910177;29;20461;-80
2023/03/06 14:07:43;;;;;;;2.42;0.90;;;;;;;;;;4918280;29;20820;-81
2023/03/06 14:10:13;;;;;;;3.88;1.00;;;;;;;;;;4917287;29;20424;-80
2023/03/06 14:12:48;;;;;;;3.50;1.10;;;;;;;;;;4930346;29;20431;-80
2023/03/06 14:15:19;;;;;;;2.15;0.80;;;;;;;;;;4917694;29;20975;-81
2023/03/06 14:17:52;;;;;;;2.60;0.93;;;;;;;;;;4933975;29;20439;-81
2023/03/06 14:20:19;;;;;;;2.50;1.00;;;;;;;;;;4928732;29;20496;-80
2023/03/06 14:22:45;;;;;;;2.60;1.08;;;;;;;;;;4915484;29;20435;-81
2023/03/06 14:25:23;;;;;;;3.90;1.13;;;;;;;;;;4915396;29;20442;-81
2023/03/06 14:27:50;;;;;;;2.95;1.00;;;7.40;99.90;;;;;;4906066;29;20431;-83
2023/03/06 14:30:21;;;;;;;2.42;1.10;;;;;;;;;;4934183;29;20435;-78
2023/03/06 14:32:48;;;;;;;3.90;1.27;;;;;;;;;;4931915;29;20435;-77
2023/03/06 14:35:28;;;;;;;3.42;1.00;;;;;;;;;;4930113;29;20444;-77
2023/03/06 14:37:57;;;;;;;1.70;1.00;;;;;;;;;;4932283;29;20438;-76
2023/03/06 14:40:43;;;;;;;2.53;1.10;;;;;;;;;;4939964;29;20490;-77
2023/03/06 14:43:20;;;;;;;3.28;1.20;;;;;;;;;;4941597;29;20435;-77
2023/03/06 14:45:50;;;;;;;4.88;1.60;;;;;;;;;;4940322;29;20439;-77
2023/03/06 14:48:16;;;;;;;5.60;1.67;;;;;;;;;;4938648;29;20546;-77